Terminal Aerodrome Forecast
Issued by NWS Springfield, MO

Home | Current Version | Previous Version | Text Only | Print | Product List | Glossary On
Versions: 1 2 3 4 5 6 7 8 9 10 11 12 13
396
FTUS43 KSGF 261720
TAFSGF
TAF
KSGF 261720Z 2618/2718 VRB03KT P6SM VCSH BKN120
     FM262300 15006KT P6SM VCSH BKN200
     FM270500 16004KT 6SM BR SCT090 BKN250=

USA.gov is the U.S. government's official web portal to all federal, state and local government web resources and services.